Butgenbach, Belgium
Current Conditions -  °F | °C
As of 12:25 PM on Friday 24 Oct 2014 (Local Time) from EBLB Reporting Station
Broken Clouds Broken Clouds  
Wind Chill: 40°   Ceiling: 800
Heat Index: 45°   Visibility: 6mi
Dew Point: 43°   Wind: 8mph
Humidity: 93%   Direction: 210°SSW
Pressure: 30.15"   Gusts: NA
Location:  50.43°N, 6.21°E
Report Text: EBLB 241025Z 21007KT 9999 SCT006 BKN008 07/06 Q1021 YLO
Loading
Personal Weather Stations






























Interactive Weather Map
Tropical Storm Tracking
New forecast layout! Learn more

10-Day Weather Forecast

Advertisements
Track Severe Weather on mobile